createdAt,value
2023-02-24T00:02:04.799Z,48.12
2023-02-24T00:04:33.712Z,48.32
2023-02-24T00:07:03.268Z,48.39
2023-02-24T00:09:31.149Z,48.60
2023-02-24T00:12:08.886Z,48.52
2023-02-24T00:14:37.397Z,48.37
2023-02-24T00:17:04.703Z,48.20
2023-02-24T00:19:34.912Z,48.31
2023-02-24T00:22:02.289Z,48.59
2023-02-24T00:24:32.261Z,48.78
2023-02-24T00:27:07.615Z,48.86
2023-02-24T00:29:35.063Z,49.09
2023-02-24T00:32:07.277Z,49.00
2023-02-24T00:34:36.548Z,49.18
2023-02-24T00:37:06.910Z,49.29
2023-02-24T00:39:36.449Z,49.82
2023-02-24T00:42:05.820Z,49.47
2023-02-24T00:44:33.219Z,49.75
2023-02-24T00:47:05.044Z,49.34
2023-02-24T00:49:36.904Z,49.72
2023-02-24T00:52:15.757Z,49.97
2023-02-24T00:54:47.649Z,50.19
2023-02-24T00:57:17.814Z,49.79
2023-02-24T00:59:47.813Z,50.56
2023-02-24T01:02:18.812Z,50.77
2023-02-24T01:04:50.097Z,50.70
2023-02-24T01:07:17.155Z,50.70
2023-02-24T01:09:44.544Z,50.70
2023-02-24T01:12:39.141Z,51.15
2023-02-24T01:15:11.878Z,51.54
2023-02-24T01:17:42.832Z,51.24
2023-02-24T01:20:18.310Z,52.23
2023-02-24T01:22:53.796Z,52.63
2023-02-24T01:25:32.628Z,51.78
2023-02-24T01:27:59.448Z,51.78
2023-02-24T01:30:32.670Z,52.46
2023-02-24T01:33:04.858Z,52.45
2023-02-24T01:35:35.464Z,51.80
2023-02-24T01:38:04.410Z,51.78
2023-02-24T01:40:33.930Z,51.71
2023-02-24T01:43:00.845Z,52.04
2023-02-24T01:45:29.891Z,52.12
2023-02-24T01:48:00.334Z,52.21
2023-02-24T01:50:28.084Z,51.84
2023-02-24T01:53:01.627Z,51.82
2023-02-24T01:55:33.776Z,52.16
2023-02-24T01:58:08.793Z,52.25
2023-02-24T02:00:48.069Z,52.29
2023-02-24T02:03:33.673Z,52.44
2023-02-24T02:06:06.532Z,52.21
2023-02-24T02:08:41.683Z,52.02
2023-02-24T02:11:12.592Z,52.34
2023-02-24T02:13:45.383Z,52.36
2023-02-24T02:17:06.380Z,52.51
2023-02-24T02:20:16.333Z,52.68
2023-02-24T02:23:04.516Z,52.71
2023-02-24T02:26:11.778Z,52.49
2023-02-24T02:28:38.473Z,52.64
2023-02-24T02:31:36.330Z,52.84
2023-02-24T02:34:28.937Z,53.10
2023-02-24T02:36:58.740Z,53.21
2023-02-24T02:40:00.735Z,53.51
2023-02-24T02:42:42.451Z,53.10
2023-02-24T02:45:15.180Z,53.39
2023-02-24T02:47:55.324Z,53.13
2023-02-24T02:50:29.032Z,53.48
2023-02-24T02:53:09.236Z,53.16
2023-02-24T02:55:45.061Z,52.18
2023-02-24T02:58:23.600Z,52.75
2023-02-24T03:01:02.646Z,52.67
2023-02-24T03:03:33.793Z,52.89
2023-02-24T03:06:06.680Z,52.64
2023-02-24T03:08:40.491Z,52.44
2023-02-24T03:11:14.093Z,52.66
2023-02-24T03:13:49.669Z,53.19
2023-02-24T03:16:20.248Z,53.12
2023-02-24T03:18:59.854Z,53.05
2023-02-24T03:21:41.427Z,52.95
2023-02-24T03:24:09.405Z,52.70
2023-02-24T03:26:59.277Z,52.92
2023-02-24T03:29:34.937Z,52.91
2023-02-24T03:32:15.792Z,52.95
2023-02-24T03:34:55.494Z,53.00
2023-02-24T03:37:30.291Z,53.20
2023-02-24T03:40:01.002Z,53.00
2023-02-24T03:42:31.430Z,53.31
2023-02-24T03:44:58.614Z,53.39
2023-02-24T03:47:26.263Z,53.35
2023-02-24T03:49:53.441Z,53.50
2023-02-24T03:52:42.252Z,53.46
2023-02-24T03:55:39.429Z,53.19
2023-02-24T03:58:34.811Z,52.83
2023-02-24T04:01:26.315Z,53.15
2023-02-24T04:03:58.804Z,53.04
2023-02-24T04:06:46.079Z,53.03
2023-02-24T04:09:45.277Z,53.45
2023-02-24T04:12:21.343Z,53.72
2023-02-24T04:14:57.060Z,54.26
2023-02-24T04:17:49.788Z,54.23
2023-02-24T04:20:20.537Z,54.28
2023-02-24T04:22:59.732Z,54.48
2023-02-24T04:25:27.786Z,54.26
2023-02-24T04:27:59.582Z,54.54
2023-02-24T04:30:29.785Z,54.61
2023-02-24T04:32:57.018Z,54.53
2023-02-24T04:35:29.269Z,55.11
2023-02-24T04:37:59.192Z,55.25
2023-02-24T04:40:27.382Z,55.09
2023-02-24T04:42:54.704Z,55.16
2023-02-24T04:45:24.015Z,55.66
2023-02-24T04:47:56.392Z,55.41
2023-02-24T04:50:28.634Z,55.58
2023-02-24T04:53:00.853Z,55.05
2023-02-24T04:55:33.176Z,55.55
2023-02-24T04:58:01.345Z,56.38
2023-02-24T05:00:36.574Z,55.97
2023-02-24T05:03:08.221Z,56.91
2023-02-24T05:05:37.156Z,56.47
2023-02-24T05:08:09.156Z,56.95
2023-02-24T05:10:46.733Z,57.02
2023-02-24T05:13:26.312Z,56.62
2023-02-24T05:15:54.687Z,56.73
2023-02-24T05:18:23.807Z,57.19
2023-02-24T05:21:14.182Z,57.23
2023-02-24T05:23:51.900Z,56.91
2023-02-24T05:26:25.727Z,57.26
2023-02-24T05:28:54.970Z,57.32
2023-02-24T05:31:26.613Z,57.00
2023-02-24T05:33:57.685Z,57.17
2023-02-24T05:36:27.250Z,57.21
2023-02-24T05:39:07.003Z,57.49
2023-02-24T05:41:42.140Z,57.56
2023-02-24T05:44:12.906Z,57.72
2023-02-24T05:46:42.253Z,58.10
2023-02-24T05:49:24.218Z,57.83
2023-02-24T05:51:54.920Z,57.94
2023-02-24T05:54:26.280Z,57.92
2023-02-24T05:57:02.040Z,58.06
2023-02-24T05:59:32.999Z,58.04
2023-02-24T06:02:07.576Z,57.79
2023-02-24T06:04:41.194Z,57.75
2023-02-24T06:07:19.633Z,57.39
2023-02-24T06:09:50.525Z,57.96
2023-02-24T06:12:21.446Z,58.27
2023-02-24T06:14:53.194Z,58.25
2023-02-24T06:17:25.798Z,58.24
2023-02-24T06:19:57.707Z,57.83
2023-02-24T06:22:25.435Z,57.37
2023-02-24T06:24:54.356Z,57.18
2023-02-24T06:27:21.855Z,56.89
2023-02-24T06:29:50.481Z,56.90
2023-02-24T06:32:21.619Z,57.02
2023-02-24T06:34:54.000Z,56.78
2023-02-24T06:37:24.095Z,57.07
2023-02-24T06:39:54.376Z,57.27
2023-02-24T06:42:23.776Z,58.38
2023-02-24T06:44:56.000Z,58.51
2023-02-24T06:47:22.921Z,57.87
2023-02-24T06:49:53.684Z,57.50
2023-02-24T06:52:23.208Z,57.60
2023-02-24T06:54:54.764Z,58.47
2023-02-24T06:57:23.953Z,58.33
2023-02-24T06:59:50.986Z,58.51
2023-02-24T07:02:17.872Z,58.13
2023-02-24T07:04:45.050Z,58.30
2023-02-24T07:07:17.397Z,58.88
2023-02-24T07:09:47.029Z,58.91
2023-02-24T07:12:14.137Z,59.25
2023-02-24T07:14:41.212Z,58.73
2023-02-24T07:17:08.560Z,58.64
2023-02-24T07:19:35.315Z,58.31
2023-02-24T07:22:04.995Z,58.33
2023-02-24T07:24:37.225Z,58.61
2023-02-24T07:27:07.038Z,58.25
2023-02-24T07:29:38.222Z,58.18
2023-02-24T07:32:09.226Z,58.24
2023-02-24T07:34:40.240Z,57.96
2023-02-24T07:37:10.606Z,57.54
2023-02-24T07:39:43.309Z,57.44
2023-02-24T07:42:13.825Z,56.95
2023-02-24T07:44:46.688Z,56.78
2023-02-24T07:47:16.434Z,56.60
2023-02-24T07:49:45.868Z,56.44
2023-02-24T07:52:13.657Z,56.45
2023-02-24T07:54:40.506Z,56.68
2023-02-24T07:57:13.766Z,56.60
2023-02-24T07:59:47.631Z,56.73
2023-02-24T08:02:15.042Z,57.02
2023-02-24T08:04:51.732Z,56.83
2023-02-24T08:07:25.913Z,56.83
2023-02-24T08:10:14.612Z,56.76
2023-02-24T08:12:47.696Z,57.02
2023-02-24T08:15:17.575Z,57.05
2023-02-24T08:17:47.663Z,57.25
2023-02-24T08:20:16.940Z,57.25
2023-02-24T08:22:48.396Z,57.32
2023-02-24T08:25:19.147Z,57.42
2023-02-24T08:28:07.432Z,57.41
2023-02-24T08:30:46.067Z,57.35
2023-02-24T08:33:28.451Z,56.89
2023-02-24T08:36:02.626Z,56.77
2023-02-24T08:38:42.591Z,56.69
2023-02-24T08:41:18.380Z,56.42
2023-02-24T08:43:46.490Z,56.43
2023-02-24T08:46:13.718Z,56.60
2023-02-24T08:48:44.114Z,56.42
2023-02-24T08:51:22.688Z,56.19
2023-02-24T08:53:55.801Z,55.82
2023-02-24T08:56:35.208Z,55.50
2023-02-24T08:59:13.114Z,55.28
2023-02-24T09:02:03.595Z,55.44
2023-02-24T09:04:31.310Z,55.02
2023-02-24T09:07:11.677Z,54.44
2023-02-24T09:09:42.359Z,54.44
2023-02-24T09:12:22.192Z,54.09
2023-02-24T09:14:56.644Z,54.80
2023-02-24T09:17:46.473Z,53.98
2023-02-24T09:20:26.027Z,53.83
2023-02-24T09:22:58.362Z,53.93
2023-02-24T09:25:40.832Z,53.58
2023-02-24T09:28:17.772Z,53.87
2023-02-24T09:30:56.272Z,53.63
2023-02-24T09:33:38.815Z,53.43
2023-02-24T09:36:20.064Z,53.15
2023-02-24T09:38:59.975Z,52.51
2023-02-24T09:41:33.594Z,52.42
2023-02-24T09:44:07.725Z,52.17
2023-02-24T09:46:39.473Z,51.72
2023-02-24T09:49:14.764Z,50.80
2023-02-24T09:51:44.303Z,50.71
2023-02-24T09:54:25.561Z,49.69
2023-02-24T09:57:08.592Z,50.06
2023-02-24T10:00:01.109Z,49.10
2023-02-24T10:02:46.158Z,47.75
2023-02-24T10:05:27.443Z,47.22
2023-02-24T10:07:57.301Z,48.52
2023-02-24T10:10:35.875Z,47.67
2023-02-24T10:13:36.536Z,47.96
2023-02-24T10:16:08.638Z,49.00
2023-02-24T10:18:38.322Z,49.89
2023-02-24T10:21:48.451Z,49.09
2023-02-24T10:24:24.638Z,50.33
2023-02-24T10:27:33.476Z,48.66
2023-02-24T10:30:11.381Z,49.52
2023-02-24T10:32:58.814Z,50.93
2023-02-24T10:35:33.916Z,50.17
2023-02-24T10:38:08.691Z,50.13
2023-02-24T10:40:48.189Z,49.32
2023-02-24T10:43:30.491Z,48.78
2023-02-24T10:46:07.612Z,49.42
2023-02-24T10:48:42.227Z,50.93
2023-02-24T10:51:30.420Z,50.08
2023-02-24T10:54:22.547Z,49.45
2023-02-24T10:57:23.383Z,48.26
2023-02-24T11:01:13.043Z,48.34
2023-02-24T11:04:01.259Z,47.70
2023-02-24T11:06:42.739Z,47.50
2023-02-24T11:09:32.516Z,47.22
2023-02-24T11:12:22.533Z,47.79
2023-02-24T11:15:15.821Z,46.76
2023-02-24T11:17:53.556Z,46.27
2023-02-24T11:20:46.426Z,45.96
2023-02-24T11:23:29.259Z,45.99
2023-02-24T11:26:04.698Z,45.71
2023-02-24T11:28:34.059Z,45.52
2023-02-24T11:31:06.907Z,44.38
2023-02-24T11:33:52.140Z,42.93
2023-02-24T11:36:41.720Z,42.99
2023-02-24T11:39:29.957Z,42.65
2023-02-24T11:42:02.529Z,44.08
2023-02-24T11:44:47.978Z,42.08
2023-02-24T11:47:23.288Z,43.80
2023-02-24T11:50:06.809Z,44.07
2023-02-24T11:52:38.826Z,41.61
2023-02-24T11:55:36.322Z,42.94
2023-02-24T11:58:08.074Z,43.34
2023-02-24T12:00:37.499Z,42.34
2023-02-24T12:03:14.889Z,42.65
2023-02-24T12:05:47.119Z,42.42
2023-02-24T12:08:26.836Z,40.40
2023-02-24T12:10:59.102Z,41.44
2023-02-24T12:13:38.165Z,42.87
2023-02-24T12:16:21.312Z,41.72
2023-02-24T12:19:01.320Z,40.86
2023-02-24T12:21:32.371Z,42.86
2023-02-24T12:24:00.206Z,43.28
2023-02-24T12:26:32.284Z,43.23
2023-02-24T12:29:29.953Z,43.78
2023-02-24T12:32:10.965Z,44.51
2023-02-24T12:34:57.394Z,44.51
2023-02-24T12:37:45.672Z,44.94
2023-02-24T12:40:15.350Z,44.08
2023-02-24T12:43:11.433Z,44.25
2023-02-24T12:45:47.987Z,44.35
2023-02-24T12:48:45.079Z,43.31
2023-02-24T12:51:36.977Z,42.92
2023-02-24T12:54:15.092Z,42.96
2023-02-24T12:56:54.765Z,41.95
2023-02-24T12:59:28.732Z,42.26
2023-02-24T13:02:06.440Z,42.09
2023-02-24T13:05:10.314Z,42.78
2023-02-24T13:07:56.100Z,43.76
2023-02-24T13:10:38.113Z,44.88
2023-02-24T13:13:06.908Z,45.19
2023-02-24T13:15:34.659Z,44.56
2023-02-24T13:18:03.780Z,44.30
2023-02-24T13:20:39.506Z,43.96
2023-02-24T13:23:23.604Z,44.23
2023-02-24T13:25:52.535Z,45.01
2023-02-24T13:28:38.757Z,45.42
2023-02-24T13:31:13.173Z,45.82
2023-02-24T13:33:45.267Z,45.62
2023-02-24T13:36:12.256Z,45.80
2023-02-24T13:38:44.835Z,46.35
2023-02-24T13:41:34.570Z,46.92
2023-02-24T13:44:01.348Z,47.04
2023-02-24T13:46:48.438Z,46.29
2023-02-24T13:49:23.166Z,45.92
2023-02-24T13:51:59.523Z,46.01
2023-02-24T13:54:37.902Z,46.01
2023-02-24T13:57:23.045Z,45.24
2023-02-24T14:00:22.120Z,44.79
2023-02-24T14:02:53.906Z,44.97
2023-02-24T14:05:25.796Z,44.91
2023-02-24T14:07:56.143Z,44.15
2023-02-24T14:10:28.180Z,43.82
2023-02-24T14:13:20.839Z,43.40
2023-02-24T14:15:50.982Z,42.73
2023-02-24T14:18:20.969Z,42.24
2023-02-24T14:20:47.929Z,41.86
2023-02-24T14:23:34.713Z,42.37
2023-02-24T14:26:16.031Z,41.61
2023-02-24T14:28:42.849Z,42.44
2023-02-24T14:31:16.952Z,42.84
2023-02-24T14:33:46.052Z,43.32
2023-02-24T14:36:22.838Z,43.09
2023-02-24T14:39:13.082Z,42.55
2023-02-24T14:41:39.879Z,42.60
2023-02-24T14:44:26.100Z,41.91
2023-02-24T14:46:57.283Z,41.59
2023-02-24T14:49:27.513Z,41.50
2023-02-24T14:52:01.061Z,41.05
2023-02-24T14:54:35.318Z,41.06
2023-02-24T14:57:02.393Z,41.17
2023-02-24T14:59:37.526Z,40.17
2023-02-24T15:02:07.333Z,39.23
2023-02-24T15:04:40.054Z,40.10
2023-02-24T15:07:17.458Z,40.13
2023-02-24T15:09:47.619Z,41.02
2023-02-24T15:12:29.940Z,41.33
2023-02-24T15:15:30.380Z,41.26
2023-02-24T15:18:04.345Z,42.08
2023-02-24T15:20:36.974Z,42.39
2023-02-24T15:23:05.884Z,42.20
2023-02-24T15:25:43.853Z,42.46
2023-02-24T15:28:36.427Z,43.13
2023-02-24T15:31:11.045Z,43.19
2023-02-24T15:33:43.461Z,43.21
2023-02-24T15:36:21.117Z,43.67
2023-02-24T15:38:51.790Z,43.74
2023-02-24T15:41:18.574Z,44.17
2023-02-24T15:43:47.356Z,44.21
2023-02-24T15:46:20.215Z,44.72
2023-02-24T15:48:57.473Z,44.42
2023-02-24T15:51:34.041Z,44.78
2023-02-24T15:54:05.233Z,44.74
2023-02-24T15:56:35.903Z,44.82
2023-02-24T15:59:06.128Z,44.52
2023-02-24T16:01:34.115Z,44.39
2023-02-24T16:04:01.611Z,44.20
2023-02-24T16:06:31.072Z,44.33
2023-02-24T16:08:58.083Z,44.96
2023-02-24T16:11:31.756Z,45.17
2023-02-24T16:13:59.671Z,45.06
2023-02-24T16:16:33.430Z,45.48
2023-02-24T16:19:02.657Z,45.58
2023-02-24T16:21:34.135Z,46.22
2023-02-24T16:24:00.908Z,46.08
2023-02-24T16:26:35.319Z,46.60
2023-02-24T16:29:12.070Z,46.72
2023-02-24T16:31:39.625Z,46.72
2023-02-24T16:34:07.394Z,46.73
2023-02-24T16:36:36.908Z,46.91
2023-02-24T16:39:05.170Z,47.42
2023-02-24T16:41:32.061Z,47.75
2023-02-24T16:43:58.784Z,47.81
2023-02-24T16:46:27.433Z,47.63
2023-02-24T16:48:54.402Z,48.31
2023-02-24T16:51:21.983Z,48.21
2023-02-24T16:53:48.715Z,48.19
2023-02-24T16:56:15.709Z,47.94
2023-02-24T16:58:44.904Z,48.17
2023-02-24T17:01:20.983Z,48.24
2023-02-24T17:03:50.651Z,48.51
2023-02-24T17:06:22.204Z,48.30
2023-02-24T17:08:50.693Z,48.63
2023-02-24T17:11:25.776Z,48.51
2023-02-24T17:13:54.605Z,48.80
2023-02-24T17:16:24.229Z,48.85
2023-02-24T17:18:53.986Z,49.01
2023-02-24T17:21:21.102Z,48.91
2023-02-24T17:23:51.341Z,49.17
2023-02-24T17:26:18.452Z,49.88
2023-02-24T17:28:45.202Z,49.36
2023-02-24T17:31:12.450Z,49.33
2023-02-24T17:33:42.034Z,49.25
2023-02-24T17:36:11.043Z,49.40
2023-02-24T17:38:38.036Z,48.97
2023-02-24T17:41:05.166Z,48.90
2023-02-24T17:43:36.520Z,48.94
2023-02-24T17:46:05.843Z,48.96
2023-02-24T17:48:33.805Z,49.04
2023-02-24T17:51:02.706Z,49.10
2023-02-24T17:53:31.186Z,49.18
2023-02-24T17:56:03.540Z,49.37
2023-02-24T17:58:30.751Z,49.26
2023-02-24T18:01:02.079Z,49.28
2023-02-24T18:03:30.465Z,49.61
2023-02-24T18:06:11.397Z,49.53
2023-02-24T18:08:39.821Z,49.45
2023-02-24T18:11:12.430Z,49.79
2023-02-24T18:13:39.227Z,49.80
2023-02-24T18:16:14.758Z,49.95
2023-02-24T18:18:41.686Z,49.65
2023-02-24T18:21:10.673Z,49.45
2023-02-24T18:23:40.553Z,49.40
2023-02-24T18:26:16.404Z,49.45
2023-02-24T18:28:43.242Z,49.27
2023-02-24T18:31:17.481Z,49.27
2023-02-24T18:33:44.809Z,49.52
2023-02-24T18:36:12.325Z,49.84
2023-02-24T18:38:41.647Z,49.85
2023-02-24T18:41:09.896Z,50.04
2023-02-24T18:43:37.408Z,49.86
2023-02-24T18:46:11.548Z,49.89
2023-02-24T18:48:41.391Z,49.88
2023-02-24T18:51:11.048Z,50.03
2023-02-24T18:53:38.249Z,50.31
2023-02-24T18:56:19.045Z,50.11
2023-02-24T18:58:47.124Z,50.47
2023-02-24T19:01:22.451Z,50.27
2023-02-24T19:03:58.082Z,50.43
2023-02-24T19:06:29.177Z,50.73
2023-02-24T19:08:58.988Z,51.13
2023-02-24T19:11:26.399Z,51.14
2023-02-24T19:13:53.240Z,50.89
2023-02-24T19:16:20.803Z,50.93
2023-02-24T19:18:52.589Z,51.24
2023-02-24T19:21:22.011Z,51.11
2023-02-24T19:23:48.817Z,51.65
2023-02-24T19:26:26.320Z,51.31
2023-02-24T19:28:54.288Z,51.42
2023-02-24T19:31:24.323Z,51.69
2023-02-24T19:33:53.169Z,51.59
2023-02-24T19:36:20.781Z,51.90
2023-02-24T19:38:50.383Z,52.28
2023-02-24T19:41:19.807Z,52.22
2023-02-24T19:43:46.906Z,52.27
2023-02-24T19:46:16.555Z,53.00
2023-02-24T19:48:43.919Z,52.61
2023-02-24T19:51:13.735Z,52.91
2023-02-24T19:53:40.694Z,52.83
2023-02-24T19:56:12.057Z,53.13
2023-02-24T19:58:41.569Z,53.19
2023-02-24T20:01:11.920Z,53.71
2023-02-24T20:03:40.648Z,54.04
2023-02-24T20:06:18.868Z,54.53
2023-02-24T20:08:45.831Z,54.72
2023-02-24T20:11:12.734Z,55.01
2023-02-24T20:13:39.695Z,55.33
2023-02-24T20:16:14.257Z,54.94
2023-02-24T20:18:42.464Z,55.56
2023-02-24T20:21:12.998Z,55.75
2023-02-24T20:23:42.762Z,55.45
2023-02-24T20:26:14.104Z,55.46
2023-02-24T20:28:41.331Z,55.78
2023-02-24T20:31:13.474Z,55.52
2023-02-24T20:33:43.770Z,55.79
2023-02-24T20:36:16.911Z,56.07
2023-02-24T20:38:43.733Z,56.43
2023-02-24T20:41:10.586Z,57.00
2023-02-24T20:43:40.519Z,57.16
2023-02-24T20:46:14.149Z,57.24
2023-02-24T20:48:48.061Z,57.10
2023-02-24T20:51:15.438Z,57.01
2023-02-24T20:53:55.947Z,57.00
2023-02-24T20:56:25.296Z,57.68
2023-02-24T20:58:53.709Z,57.30
2023-02-24T21:01:21.195Z,57.82
2023-02-24T21:03:48.982Z,57.15
2023-02-24T21:06:17.299Z,57.45
2023-02-24T21:08:45.147Z,57.58
2023-02-24T21:11:13.642Z,58.19
2023-02-24T21:13:46.856Z,57.97
2023-02-24T21:16:16.074Z,58.58
2023-02-24T21:18:49.191Z,58.04
2023-02-24T21:21:17.142Z,58.43
2023-02-24T21:23:46.627Z,58.78
2023-02-24T21:26:13.501Z,58.38
2023-02-24T21:28:42.572Z,58.68
2023-02-24T21:31:21.781Z,58.66
2023-02-24T21:33:52.835Z,58.97
2023-02-24T21:36:25.667Z,59.06
2023-02-24T21:38:56.385Z,59.57
2023-02-24T21:41:23.919Z,59.30
2023-02-24T21:43:55.468Z,59.63
2023-02-24T21:46:24.630Z,59.48
2023-02-24T21:48:59.943Z,59.53
2023-02-24T21:51:31.475Z,59.88
2023-02-24T21:53:58.390Z,60.11
2023-02-24T21:56:27.442Z,60.23
2023-02-24T21:59:01.084Z,60.34
2023-02-24T22:01:40.157Z,60.46
2023-02-24T22:04:11.473Z,60.43
2023-02-24T22:06:41.595Z,60.54
2023-02-24T22:09:11.816Z,60.63
2023-02-24T22:11:43.536Z,60.78
2023-02-24T22:14:12.289Z,60.91
2023-02-24T22:16:39.706Z,60.48
2023-02-24T22:19:09.756Z,61.18
2023-02-24T22:21:42.469Z,60.89
2023-02-24T22:24:17.077Z,60.98
2023-02-24T22:26:44.557Z,61.32
2023-02-24T22:29:11.801Z,60.87
2023-02-24T22:31:39.567Z,61.37
2023-02-24T22:34:09.151Z,61.62
2023-02-24T22:36:39.565Z,61.82
2023-02-24T22:39:06.857Z,61.89
2023-02-24T22:41:36.779Z,61.79
2023-02-24T22:44:05.501Z,62.02
2023-02-24T22:46:37.163Z,62.09
2023-02-24T22:49:04.957Z,62.52
2023-02-24T22:51:33.918Z,61.98
2023-02-24T22:54:00.722Z,62.26
2023-02-24T22:56:31.914Z,62.50
2023-02-24T22:58:59.198Z,62.63
2023-02-24T23:01:33.109Z,62.13
2023-02-24T23:04:03.624Z,62.32
2023-02-24T23:06:31.404Z,62.77
2023-02-24T23:09:01.407Z,62.33
2023-02-24T23:11:37.049Z,62.28
2023-02-24T23:14:10.231Z,62.58
2023-02-24T23:16:40.268Z,62.75
2023-02-24T23:19:12.903Z,62.63
2023-02-24T23:21:41.731Z,62.60
2023-02-24T23:24:14.307Z,62.79
2023-02-24T23:26:49.090Z,62.76
2023-02-24T23:29:18.988Z,63.29
2023-02-24T23:31:46.357Z,63.54
2023-02-24T23:34:13.911Z,63.17
2023-02-24T23:36:44.165Z,63.56
2023-02-24T23:39:12.947Z,63.62
2023-02-24T23:41:41.448Z,64.06
2023-02-24T23:44:08.601Z,64.15
2023-02-24T23:46:38.547Z,64.08
2023-02-24T23:49:09.960Z,63.78
2023-02-24T23:51:47.725Z,64.13
2023-02-24T23:54:16.392Z,64.17
2023-02-24T23:56:43.164Z,64.45
2023-02-24T23:59:09.915Z,64.63
